Latest Coastal Weather Observations for Townsville

IDQ60701

Issued at 2:55 am EST Saturday 25 October 2014 (issued every 10 minutes, with the page automatically refreshed every 10 minutes)

About coastal observations | Map of coastal stations | Coastal observations for QLD | Marine services | Other Formats
Station Details ID: 032040 Name: TOWNSVILLE AERO Lat: -19.25 Lon: 146.77 Height: 4.34 m
Data from the previous 72 hours. | See also: Recent months at Townsville
Date/Time
EST
Temp

°C
Wind Pressure Rain
since 9am
mm
Weather Cloud Vis
km
Sea
Height
m
Swell
Dir
 
Speed
knots
Gust
knots
hPa Trend Height
m
Period
s
Dir
25/02:30am 21.3 SSE 6 7 1018.1 - 0.0 - Partly cloudy 10 - - - -
25/02:00am 21.1 SSE 6 7 1018.2 - 0.0 - Partly cloudy 10 - - - -
25/01:30am 20.9 S 6 8 1018.7 - 0.0 - - 10 - - - -
25/01:00am 20.9 SSE 5 6 1019.1 - 0.0 - - 10 - - - -
25/12:30am 21.3 SE 6 8 1019.3 - 0.0 - - 10 - - - -
25/12:00am 21.5 SE 7 8 1019.3 - 0.0 - - 10 - - - -
 
Date/Time
EST
Temp

°C
Wind Pressure Rain
since 9am
mm
Weather Cloud Vis
km
Sea
Height
m
Swell
Dir
 
Speed
knots
Gust
knots
hPa Trend Height
m
Period
s
Dir
24/11:30pm 21.9 ESE 7 9 1019.8 - 0.0 - - 10 - - - -
24/11:00pm 22.0 SE 7 9 1020.1 - 0.0 - - 10 - - - -
24/10:30pm 22.4 SE 7 9 1020.1 - 0.0 - Partly cloudy 10 - - - -
24/10:00pm 22.6 SE 7 10 1020.1 - 0.0 - Partly cloudy 10 - - - -
24/09:30pm 23.1 E 8 13 1019.8 - 0.0 - Partly cloudy 10 - - - -
24/09:00pm 23.1 E 7 11 1019.5 - 0.0 - - 10 - - - -
24/08:30pm 22.8 E 6 8 1019.4 - 0.0 - - 10 - - - -
24/08:00pm 22.9 E 7 9 1018.9 - 0.0 - - 10 - - - -
24/07:30pm 22.9 E 5 6 1018.6 - 0.0 - - 10 - - - -
24/07:00pm 23.3 E 8 11 1018.4 - 0.0 - - 10 - - - -
24/06:30pm 23.5 E 8 10 1018.0 - 0.0 - - 10 - - - -
24/06:00pm 24.2 ENE 10 14 1017.6 - 0.0 - - 10 - - - -
24/05:30pm 24.9 ENE 11 15 1017.5 - 0.0 - - 10 - - - -
24/05:00pm 25.1 NE 13 16 1017.2 - 0.0 - - 10 - - - -
24/04:30pm 26.1 ENE 15 18 1016.8 - 0.0 - - 10 - - - -
24/04:00pm 26.1 ENE 15 19 1016.7 - 0.0 - - 10 - - - -
24/03:30pm 26.4 NE 15 19 1016.7 - 0.0 - - 10 - - - -
24/03:00pm 27.0 NE 15 18 1016.7 - 0.0 - - 10 - - - -
24/02:30pm 26.9 ENE 14 18 1017.1 - 0.0 - - 10 - - - -
24/02:00pm 27.2 ENE 14 17 1017.3 - 0.0 - - 10 - - - -
24/01:30pm 27.2 NE 15 18 1017.6 - 0.0 - - 10 - - - -
24/01:00pm 26.9 ENE 16 19 1018.0 - 0.0 - - 10 - - - -
24/12:30pm 27.5 NE 16 19 1018.5 - 0.0 - - 10 - - - -
24/12:00pm 28.5 NE 16 19 1018.7 R 0.0 Fine Clear 40 - - - -
24/11:30am 28.6 NE 16 19 1018.8 - 0.0 - Mostly clear 10 - - - -
24/11:00am 27.0 NE 14 18 1019.1 - 0.0 - - 10 - - - -
24/10:30am 27.5 ENE 15 18 1019.4 - 0.0 - Mostly clear 10 - - - -
24/10:00am 27.1 ENE 12 16 1019.6 - 0.0 - Mostly clear 10 - - - -
24/09:30am 26.5 E 5 12 1019.9 - 0.0 - Mostly clear 10 - - - -
24/09:00am 25.7 SSE 6 11 1020.0 F 0.0 Haze Mostly clear 25 - - - -
24/08:30am 24.5 SE 7 11 1020.1 - 0.0 - Mostly clear 10 - - - -
24/08:00am 24.2 SSE 10 14 1020.0 - 0.0 - Mostly clear 10 - - - -
24/07:30am 23.4 SSE 8 10 1020.0 - 0.0 - Mostly clear 10 - - - -
24/07:00am 22.6 SSE 5 7 1019.8 - 0.0 - Mostly clear 10 - - - -
24/06:30am 18.8 S 5 6 1019.4 - 0.0 - Mostly clear 10 - - - -
24/06:00am 19.1 S 6 7 1019.0 R 0.0 Haze Mostly clear 20 - - - -
24/05:30am 19.3 S 5 7 1018.7 - 0.0 - - 10 - - - -
24/05:00am 19.6 SE 7 8 1018.4 - 0.0 - - 10 - - - -
24/04:30am 18.4 SE 6 8 1018.2 - 0.0 - - 10 - - - -
24/04:00am 19.6 SE 7 7 1018.0 - 0.0 - - 10 - - - -
24/03:30am 20.0 SE 6 7 1017.8 - 0.0 - - 10 - - - -
24/03:00am 20.1 SE 6 8 1017.7 - 0.0 - - 10 - - - -
24/02:30am 20.7 SE 7 9 1018.1 - 0.0 - - 10 - - - -
24/02:00am 20.9 SSE 7 8 1018.3 - 0.0 - - 10 - - - -
24/01:30am 21.0 SSE 6 8 1018.7 - 0.0 - - 10 - - - -
24/01:00am 20.9 S 5 6 1019.1 - 0.0 - - 10 - - - -
24/12:30am 21.5 SSE 6 8 1019.4 - 0.0 - - 10 - - - -
24/12:00am 21.8 SSE 7 8 1019.5 - 0.0 - Mostly clear 10 - - - -
 
Date/Time
EST
Temp

°C
Wind Pressure Rain
since 9am
mm
Weather Cloud Vis
km
Sea
Height
m
Swell
Dir
 
Speed
knots
Gust
knots
hPa Trend Height
m
Period
s
Dir
23/11:30pm 22.3 SE 7 9 1019.8 - 0.0 - Partly cloudy 10 - - - -
23/11:00pm 22.5 SE 5 7 1019.9 - 0.0 - Partly cloudy 10 - - - -
23/10:30pm 23.1 ESE 7 9 1019.8 - 0.0 - Partly cloudy 10 - - - -
23/10:00pm 22.8 ESE 7 9 1019.6 - 0.0 - Partly cloudy 10 - - - -
23/09:30pm 22.8 E 6 8 1019.6 - 0.0 - - 10 - - - -
23/09:00pm 22.7 E 9 13 1019.1 - 0.0 - - 10 - - - -
23/08:30pm 22.2 ESE 5 5 1018.8 - 0.0 - - 10 - - - -
23/08:00pm 22.8 E 7 9 1018.4 - 0.0 - - 10 - - - -
23/07:30pm 23.4 ENE 10 14 1018.2 - 0.0 - - 10 - - - -
23/07:00pm 23.7 ENE 12 15 1017.8 - 0.0 - - 10 - - - -
23/06:30pm 23.9 ENE 11 15 1017.5 - 0.0 - - 10 - - - -
23/06:00pm 24.3 ENE 11 16 1017.0 - 0.0 - - 10 - - - -
23/05:30pm 25.0 ENE 14 18 1016.6 - 0.0 - Mostly clear 10 - - - -
23/05:00pm 25.6 E 16 19 1016.1 - 0.0 - Mostly clear 10 - - - -
23/04:30pm 25.8 ENE 19 24 1015.6 - 0.0 - Mostly clear 10 - - - -
23/04:00pm 26.3 ENE 19 23 1015.4 - 0.0 - Mostly clear 10 - - - -
23/03:30pm 26.7 ENE 19 22 1015.3 - 0.0 - Mostly clear 10 - - - -
23/03:00pm 26.5 ENE 18 24 1015.5 - 0.0 - Mostly clear 10 - - - -
23/02:30pm 27.3 ENE 19 22 1015.8 - 0.0 - Mostly clear 10 - - - -
23/02:00pm 27.7 ENE 18 23 1016.1 - 0.0 - Mostly clear 10 - - - -
23/01:30pm 27.1 ENE 19 23 1016.4 - 0.0 - Mostly clear 10 - - - -
23/01:00pm 27.8 ENE 18 22 1016.8 - 0.0 - Mostly clear 10 - - - -
23/12:30pm 27.6 ENE 19 24 1017.3 - 0.0 - Mostly clear 10 - - - -
23/12:00pm 27.2 ENE 17 21 1017.6 F 0.0 Haze Mostly clear 25 - - - -
23/11:30am 28.4 ENE 18 22 1018.1 - 0.0 - Mostly clear 10 - - - -
23/11:00am 27.6 NE 16 19 1018.6 - 0.0 - Mostly clear 10 - - - -
23/10:30am 27.4 NE 14 18 1019.0 - 0.0 - Mostly clear 10 - - - -
23/10:00am 27.3 E 11 21 1019.3 - 0.0 - Mostly clear 10 - - - -
23/09:30am 26.6 ENE 11 14 1019.4 - 0.0 - Mostly clear 10 - - - -
23/09:00am 26.2 SE 9 14 1019.6 F 0.0 Haze Mostly clear 20 - - - -
23/08:30am 25.0 SE 8 10 1019.7 - 0.0 - Mostly clear 10 - - - -
23/08:00am 24.9 SSE 8 14 1019.6 - 0.0 - Mostly clear 10 - - - -
23/07:30am 23.7 SSE 9 10 1019.4 - 0.0 - Mostly clear 10 - - - -
23/07:00am 22.0 S 7 8 1019.1 - 0.0 - Mostly clear 10 - - - -
23/06:30am 20.8 SSW 8 9 1018.8 - 0.0 - Mostly clear 10 - - - -
23/06:00am 19.5 SSW 8 9 1018.5 F 0.0 Haze Mostly clear 20 - - - -
23/05:30am 19.1 SSW 7 9 1018.5 - 0.0 - - 10 - - - -
23/05:00am 19.5 SSW 5 6 1018.3 - 0.0 - - 10 - - - -
23/04:30am 20.5 SSW 7 9 1017.9 - 0.0 - - 10 - - - -
23/04:00am 21.0 SSE 7 9 1017.8 - 0.0 - - 10 - - - -
23/03:30am 20.6 SSE 7 8 1017.8 - 0.0 - - 10 - - - -
23/03:00am 21.1 SE 7 8 1017.9 - 0.0 - - 10 - - - -
23/02:30am 21.2 SE 7 8 1018.2 - 0.0 - - 10 - - - -
23/02:00am 21.7 SE 7 9 1018.4 - 0.0 - - 10 - - - -
23/01:30am 22.5 SE 7 9 1018.8 - 0.0 - Partly cloudy 10 - - - -
23/01:00am 22.8 SE 8 10 1019.1 - 0.0 - Partly cloudy 10 - - - -
23/12:30am 23.3 E 9 13 1019.5 - 0.0 - Partly cloudy 10 - - - -
23/12:00am 23.4 ESE 8 12 1019.7 - 0.0 - Partly cloudy 10 - - - -
 
Date/Time
EST
Temp

°C
Wind Pressure Rain
since 9am
mm
Weather Cloud Vis
km
Sea
Height
m
Swell
Dir
 
Speed
knots
Gust
knots
hPa Trend Height
m
Period
s
Dir
22/11:30pm 23.2 ESE 6 9 1020.0 - 0.0 - Partly cloudy 10 - - - -
22/11:00pm 22.8 E 6 9 1020.0 - 0.0 - - 10 - - - -
22/10:30pm 23.3 E 8 11 1020.0 - 0.0 - Partly cloudy 10 - - - -
22/10:00pm 23.5 E 7 10 1020.0 - 0.0 - Partly cloudy 10 - - - -
22/09:30pm 23.3 E 9 15 1019.8 - 0.0 - - 10 - - - -
22/09:00pm 23.6 E 9 13 1019.3 - 0.0 - - 10 - - - -
22/08:30pm 23.6 E 8 10 1019.3 - 0.0 - - 10 - - - -
22/08:00pm 23.6 E 9 14 1019.2 - 0.0 - - 10 - - - -
22/07:30pm 23.8 E 11 16 1019.0 - 0.0 - - 10 - - - -
22/07:00pm 23.8 E 11 16 1018.8 - 0.0 - - 10 - - - -
22/06:30pm 24.0 E 15 20 1018.4 - 0.0 - - 10 - - - -
22/06:00pm 24.3 E 14 20 1018.0 - 0.0 - - 10 - - - -
22/05:30pm 25.1 E 17 21 1017.9 - 0.0 - Mostly clear 10 - - - -
22/05:00pm 26.0 E 16 20 1017.7 - 0.0 - Mostly clear 10 - - - -
22/04:30pm 26.4 E 18 22 1017.6 - 0.0 - Mostly clear 10 - - - -
22/04:00pm 26.8 ENE 17 22 1017.4 - 0.0 - Mostly clear 10 - - - -
22/03:30pm 27.6 ENE 20 23 1017.3 - 0.0 - Mostly clear 10 - - - -
22/03:00pm 27.4 ENE 19 24 1017.3 - 0.0 - Mostly clear 10 - - - -
22/02:30pm 27.7 ENE 17 22 1017.7 - 0.0 - Mostly clear 10 - - - -
22/02:00pm 27.8 ENE 19 23 1018.0 - 0.0 - Mostly clear 10 - - - -
22/01:30pm 27.9 E 19 23 1018.2 - 0.0 - Mostly clear 10 - - - -
22/01:00pm 27.1 ENE 15 20 1018.7 - 0.0 - Mostly clear 10 - - - -
22/12:30pm 27.1 E 16 21 1019.2 - 0.0 - Mostly clear 10 - - - -
22/12:00pm 27.4 E 15 19 1019.5 F 0.0 Haze Partly cloudy 25 - - - -
22/11:30am 26.0 ESE 14 19 1020.1 - 0.0 - Mostly clear 10 - - - -
22/11:00am 25.0 S 5 7 1020.6 - 0.0 - Mostly clear 10 - - - -
22/10:30am 23.8 S 8 14 1020.9 - 0.0 - Mostly clear 10 - - - -
22/10:00am 22.9 SE 10 14 1021.2 - 0.0 - Mostly clear 10 - - - -
22/09:30am 22.3 SSE 13 17 1021.3 - 0.0 - Mostly clear 10 - - - -
22/09:00am 22.7 SSE 9 15 1021.2 R 1.0 Distant precip. Mostly cloudy 20 - - - -
22/08:30am 21.2 SSE 10 13 1021.2 - 1.0 - Mostly clear 8 - - - -
22/08:00am 20.5 SE 8 10 1021.0 - 1.0 Drizzle Mostly clear 6 - - - -
22/07:30am 20.8 SE 15 19 1020.7 - 1.0 Drizzle Mostly clear 5 - - - -
22/07:00am 20.6 SSW 6 8 1020.1 - 1.0 Drizzle Mostly clear 9 - - - -
22/06:30am 20.1 S 7 9 1019.8 - 1.0 - Mostly clear 10 - - - -
22/06:00am 19.5 SSE 12 17 1019.4 F 1.0 Drizzle Mostly cloudy 9 - - - -
22/05:46am 19.8 SE 11 16 1019.6 - 1.0 - Partly cloudy 6 - - - -
22/05:30am 20.2 S 8 10 1019.2 - 0.8 - Partly cloudy 10 - - - -
22/05:00am 19.9 SSE 6 8 1019.0 - 0.8 - Partly cloudy 10 - - - -
22/04:49am 19.8 SSE 7 10 1019.0 - 0.8 - Partly cloudy 10 - - - -
22/04:47am 19.7 SSE 7 10 1019.1 - 0.8 - Partly cloudy 10 - - - -
22/04:30am 19.3 SE 6 7 1019.1 - 0.6 - Partly cloudy 7 - - - -
22/04:12am 19.4 ESE 12 15 1019.1 - 0.2 - Partly cloudy 4 - - - -
22/04:00am 20.0 SE 10 15 1018.9 - 0.0 - Partly cloudy 5 - - - -
22/03:57am 20.2 SE 10 15 1018.9 - 0.0 - Partly cloudy 6 - - - -
22/03:30am 21.6 SE 9 12 1018.6 - 0.0 - Partly cloudy 10 - - - -
22/03:00am 21.9 SE 9 13 1018.6 - 0.0 - Cloudy 10 - - - -

Other Formats:

Comma delimited format used in spreadsheet applications
http://www.bom.gov.au/fwo/IDQ60701/IDQ60701.94294.axf

JavaScript Object Notation format (JSON) in row-major order
http://www.bom.gov.au/fwo/IDQ60701/IDQ60701.94294.json